Time;durP1;ratioP1;P1;durP2;ratioP2;P2;SDS_P1;SDS_P2;PMS_P1;PMS_P2;Temp;Humidity;BMP_temperature;BMP_pressure;BME280_temperature;BME280_humidity;BME280_pressure;Samples;Min_cycle;Max_cycle;Signal;HPM_P1;HPM_P2
2021/03/25 00:00:19;;;;;;;29.65;15.45;;;5.70;99.90;;;;;;5065493;28;19917;-82
2021/03/25 00:02:44;;;;;;;;;;;5.80;99.90;;;;;;5049246;28;20035;-82
2021/03/25 00:05:34;;;;;;;31.95;15.32;;;5.80;99.90;;;;;;5048731;28;19940;-81
2021/03/25 00:07:59;;;;;;;31.75;16.35;;;5.80;99.90;;;;;;5011243;28;20117;-82
2021/03/25 00:10:31;;;;;;;33.08;17.13;;;5.80;99.90;;;;;;5011345;28;20060;-82
2021/03/25 00:12:58;;;;;;;32.88;15.05;;;5.80;99.90;;;;;;5027850;28;20044;-82
2021/03/25 00:15:24;;;;;;;27.50;14.38;;;5.80;99.90;;;;;;5011470;28;20033;-82
2021/03/25 00:17:49;;;;;;;36.28;19.73;;;5.90;99.90;;;;;;5024086;28;20045;-81
2021/03/25 00:20:16;;;;;;;36.78;19.45;;;5.90;99.90;;;;;;5023809;28;20053;-82
2021/03/25 00:22:42;;;;;;;33.38;18.30;;;5.90;99.90;;;;;;5024319;28;20018;-82
2021/03/25 00:25:12;;;;;;;35.35;19.02;;;5.90;99.90;;;;;;5008138;28;20066;-82
2021/03/25 00:27:37;;;;;;;33.42;18.20;;;5.90;99.90;;;;;;5024192;28;20030;-82
2021/03/25 00:30:05;;;;;;;32.70;17.02;;;5.90;99.90;;;;;;5024114;28;20128;-81
2021/03/25 00:32:32;;;;;;;34.63;17.30;;;5.90;99.90;;;;;;5007624;28;20038;-82
2021/03/25 00:34:58;;;;;;;34.83;17.80;;;5.90;99.90;;;;;;5023926;28;20029;-82
2021/03/25 00:37:23;;;;;;;32.75;16.05;;;6.00;99.90;;;;;;5023907;28;20029;-82
2021/03/25 00:39:49;;;;;;;28.15;16.08;;;5.90;99.90;;;;;;5024127;28;20041;-82
2021/03/25 00:42:14;;;;;;;32.10;18.13;;;5.90;99.90;;;;;;5024091;28;20026;-82
2021/03/25 00:44:40;;;;;;;31.10;16.45;;;5.90;99.90;;;;;;5032267;28;20064;-82
2021/03/25 00:47:05;;;;;;;31.23;17.13;;;5.90;99.90;;;;;;5061603;28;20116;-82
2021/03/25 00:49:34;;;;;;;32.35;17.98;;;5.90;99.90;;;;;;5061137;28;20041;-82
2021/03/25 00:52:00;;;;;;;31.25;16.42;;;5.90;99.90;;;;;;5064536;28;20119;-81
2021/03/25 00:54:26;;;;;;;29.55;17.88;;;5.90;99.90;;;;;;5048144;28;20040;-82
2021/03/25 00:56:51;;;;;;;33.78;17.33;;;5.90;99.90;;;;;;5064916;28;20033;-82
2021/03/25 00:59:17;;;;;;;32.90;18.17;;;5.90;99.90;;;;;;5064520;28;20097;-82
2021/03/25 01:01:44;;;;;;;31.08;16.80;;;6.00;99.90;;;;;;5064702;28;20059;-82
2021/03/25 01:04:09;;;;;;;27.10;15.00;;;5.90;99.90;;;;;;5047683;28;20032;-82
2021/03/25 01:06:35;;;;;;;31.05;17.33;;;5.90;99.90;;;;;;5047766;28;20029;-82
2021/03/25 01:09:10;;;;;;;32.38;16.90;;;6.00;99.90;;;;;;5065242;28;20037;-82
2021/03/25 01:11:36;;;;;;;31.63;15.98;;;5.90;99.90;;;;;;5081048;28;20025;-82
2021/03/25 01:14:07;;;;;;;31.30;17.17;;;5.80;99.90;;;;;;5064442;28;20090;-82
2021/03/25 01:16:40;;;;;;;32.47;17.00;;;5.80;99.90;;;;;;5081002;28;20025;-82
2021/03/25 01:19:20;;;;;;;27.80;16.00;;;5.80;99.90;;;;;;5063951;28;20045;-82
2021/03/25 01:21:46;;;;;;;31.58;17.67;;;5.90;99.90;;;;;;5081135;28;20028;-81
2021/03/25 01:24:12;;;;;;;31.58;17.50;;;6.00;99.90;;;;;;5080910;28;20051;-82
2021/03/25 01:26:39;;;;;;;32.63;16.85;;;5.80;99.90;;;;;;5064264;28;20476;-82
2021/03/25 01:29:07;;;;;;;31.67;17.92;;;5.90;99.90;;;;;;5063997;28;20063;-82
2021/03/25 01:31:35;;;;;;;34.92;17.70;;;5.90;99.90;;;;;;5066449;28;20024;-82
2021/03/25 01:34:05;;;;;;;34.60;18.10;;;5.90;99.90;;;;;;5068490;28;20025;-82
2021/03/25 01:36:31;;;;;;;32.35;17.33;;;5.90;99.90;;;;;;5068132;28;20474;-82
2021/03/25 01:38:58;;;;;;;32.20;18.23;;;5.90;99.90;;;;;;5084636;28;20037;-83
2021/03/25 01:41:31;;;;;;;32.92;17.63;;;5.80;99.90;;;;;;5084982;28;20067;-82
2021/03/25 01:44:00;;;;;;;31.60;16.90;;;5.80;99.90;;;;;;5068249;28;20029;-82
2021/03/25 01:46:40;;;;;;;33.83;16.80;;;5.80;99.90;;;;;;5068188;28;20025;-82
2021/03/25 01:49:11;;;;;;;30.30;17.25;;;5.90;99.90;;;;;;5067821;28;20444;-82
2021/03/25 01:52:08;;;;;;;30.27;18.33;;;5.80;99.90;;;;;;5064772;28;20044;-82
2021/03/25 01:54:47;;;;;;;32.33;17.17;;;5.80;99.90;;;;;;5045104;28;20053;-82
2021/03/25 01:57:32;;;;;;;34.85;17.02;;;5.80;99.90;;;;;;5031538;28;20036;-82
2021/03/25 02:00:20;;;;;;;34.63;17.95;;;5.80;99.90;;;;;;5047692;28;20049;-82
2021/03/25 02:03:06;;;;;;;32.60;18.45;;;5.80;99.90;;;;;;5031414;28;20037;-82
2021/03/25 02:06:13;;;;;;;35.40;17.10;;;5.80;99.90;;;;;;5047648;28;20037;-82
2021/03/25 02:09:07;;;;;;;33.65;17.90;;;5.80;99.90;;;;;;5047559;28;20053;-82
2021/03/25 02:12:16;;;;;;;30.35;16.73;;;5.80;99.90;;;;;;5048260;28;20087;-82
2021/03/25 02:14:49;;;;;;;32.38;17.20;;;5.80;99.90;;;;;;5031638;28;20033;-82
2021/03/25 02:17:23;;;;;;;35.38;18.45;;;5.90;99.90;;;;;;5051129;28;20049;-82
2021/03/25 02:20:39;;;;;;;33.33;16.80;;;5.90;99.90;;;;;;5067379;28;20051;-83
2021/03/25 02:23:36;;;;;;;31.63;16.08;;;5.90;99.90;;;;;;5050894;28;20082;-82
2021/03/25 02:26:27;;;;;;;33.95;18.10;;;5.90;99.90;;;;;;5067564;28;20032;-82
2021/03/25 02:29:26;;;;;;;36.70;17.67;;;5.90;99.90;;;;;;5066917;28;20059;-82
2021/03/25 02:31:58;;;;;;;34.63;16.90;;;5.90;99.90;;;;;;5050908;28;20021;-82
2021/03/25 02:34:31;;;;;;;35.42;18.17;;;5.90;99.90;;;;;;5050780;28;20613;-82
2021/03/25 02:37:10;;;;;;;31.55;17.05;;;5.90;99.90;;;;;;5067157;28;20024;-82
2021/03/25 02:40:02;;;;;;;32.28;17.98;;;6.00;99.90;;;;;;5050765;28;20037;-82
2021/03/25 02:42:50;;;;;;;32.85;16.83;;;6.00;99.90;;;;;;5052267;28;20036;-82
2021/03/25 02:45:20;;;;;;;32.42;17.30;;;6.00;99.90;;;;;;5067158;28;20036;-82
2021/03/25 02:47:50;;;;;;;34.08;17.88;;;6.00;99.90;;;;;;5050531;28;20040;-82
2021/03/25 02:50:25;;;;;;;;;;;6.00;99.90;;;;;;5050627;28;20048;-82
2021/03/25 02:52:57;;;;;;;31.05;15.68;;;6.00;99.90;;;;;;5067021;28;19908;-82
2021/03/25 02:55:25;;;;;;;31.05;16.95;;;6.10;99.90;;;;;;5067060;28;20025;-82
2021/03/25 02:58:04;;;;;;;31.58;16.15;;;6.10;99.90;;;;;;5050962;28;20029;-81
2021/03/25 03:00:42;;;;;;;29.30;15.90;;;6.10;99.90;;;;;;5050639;28;20041;-82
2021/03/25 03:03:19;;;;;;;34.38;18.10;;;6.10;99.90;;;;;;5050351;28;20060;-82
2021/03/25 03:06:12;;;;;;;34.80;17.25;;;6.10;99.90;;;;;;5056279;28;20045;-82
2021/03/25 03:08:46;;;;;;;39.15;19.75;;;6.10;99.90;;;;;;5050177;28;20057;-81
2021/03/25 03:11:12;;;;;;;32.85;18.05;;;6.20;99.90;;;;;;5050087;28;20059;-83
2021/03/25 03:13:46;;;;;;;34.00;18.17;;;6.20;99.90;;;;;;5066559;28;20029;-82
2021/03/25 03:16:52;;;;;;;32.17;17.85;;;6.20;99.90;;;;;;5066531;28;20029;-82
2021/03/25 03:19:20;;;;;;;33.33;17.40;;;6.20;99.90;;;;;;5066100;28;20123;-82
2021/03/25 03:21:53;;;;;;;34.38;18.55;;;6.20;99.90;;;;;;5066269;28;20056;-82
2021/03/25 03:24:38;;;;;;;36.08;19.90;;;6.20;99.90;;;;;;5067639;28;20048;-82
2021/03/25 03:27:42;;;;;;;38.97;20.58;;;6.30;99.90;;;;;;5066377;28;20036;-82
2021/03/25 03:30:15;;;;;;;37.85;20.23;;;6.40;99.90;;;;;;5066059;28;20032;-82
2021/03/25 03:33:18;;;;;;;34.30;19.23;;;6.40;99.90;;;;;;5067593;28;20047;-82
2021/03/25 03:35:58;;;;;;;38.65;19.88;;;6.40;99.90;;;;;;5065944;28;20021;-82
2021/03/25 03:38:35;;;;;;;36.05;19.38;;;6.30;99.90;;;;;;5082423;28;20036;-82
2021/03/25 03:41:13;;;;;;;33.95;19.27;;;6.30;99.90;;;;;;5066036;28;20037;-83
2021/03/25 03:43:41;;;;;;;37.30;19.27;;;6.30;99.90;;;;;;5066003;28;20028;-82
2021/03/25 03:46:11;;;;;;;34.90;20.10;;;6.40;99.90;;;;;;5065810;28;20464;-82
2021/03/25 03:48:49;;;;;;;48.25;25.17;;;6.50;99.90;;;;;;5065878;28;20116;-82
2021/03/25 03:51:29;;;;;;;48.58;23.08;;;6.50;99.90;;;;;;5065788;28;20040;-82
2021/03/25 03:54:05;;;;;;;42.08;22.15;;;6.50;99.90;;;;;;5048237;28;20036;-82
2021/03/25 03:56:52;;;;;;;39.65;21.38;;;6.40;99.90;;;;;;5049135;28;20041;-82
2021/03/25 03:59:25;;;;;;;36.70;19.88;;;6.30;99.90;;;;;;5048742;28;20049;-82
2021/03/25 04:02:06;;;;;;;36.20;19.77;;;6.30;99.90;;;;;;5049083;28;20111;-82
2021/03/25 04:04:41;;;;;;;37.28;19.95;;;6.40;99.90;;;;;;5065507;28;20511;-82
2021/03/25 04:07:33;;;;;;;38.22;18.67;;;6.40;99.90;;;;;;5046204;28;20055;-82
2021/03/25 04:10:08;;;;;;;37.95;19.80;;;6.50;99.90;;;;;;5065154;28;20524;-82
2021/03/25 04:12:41;;;;;;;41.08;19.17;;;6.50;99.90;;;;;;5049434;28;20033;-82
2021/03/25 04:15:20;;;;;;;34.03;18.38;;;6.50;99.90;;;;;;5049156;28;20039;-82
2021/03/25 04:18:20;;;;;;;38.67;19.58;;;6.40;99.90;;;;;;5049529;28;20075;-82
2021/03/25 04:21:18;;;;;;;34.95;19.58;;;6.40;99.90;;;;;;5068456;28;20051;-82
2021/03/25 04:23:45;;;;;;;35.10;19.13;;;6.40;99.90;;;;;;5065259;28;20040;-83
2021/03/25 04:26:19;;;;;;;35.42;18.63;;;6.40;99.90;;;;;;5065207;28;20033;-82
2021/03/25 04:28:54;;;;;;;36.58;20.23;;;6.30;99.90;;;;;;5081911;28;20083;-82
2021/03/25 04:31:20;;;;;;;43.00;21.30;;;6.40;99.90;;;;;;5065279;28;20044;-82
2021/03/25 04:33:45;;;;;;;33.97;19.67;;;6.50;99.90;;;;;;5048549;28;20028;-82
2021/03/25 04:36:21;;;;;;;37.45;21.52;;;6.50;99.90;;;;;;5064939;28;20044;-82
2021/03/25 04:38:48;;;;;;;38.40;20.55;;;6.50;99.90;;;;;;5081500;28;20032;-82
2021/03/25 04:41:15;;;;;;;39.58;21.27;;;6.50;99.90;;;;;;5081727;28;20040;-82
2021/03/25 04:43:44;;;;;;;40.22;21.80;;;6.50;99.90;;;;;;5065129;28;20045;-82
2021/03/25 04:46:30;;;;;;;42.05;20.60;;;6.40;99.90;;;;;;5081681;28;20120;-82
2021/03/25 04:49:01;;;;;;;37.75;20.95;;;6.50;99.90;;;;;;5048096;28;20029;-83
2021/03/25 04:51:27;;;;;;;38.58;21.02;;;6.50;99.90;;;;;;5081367;28;20087;-82
2021/03/25 04:54:30;;;;;;;43.00;21.55;;;6.50;99.90;;;;;;5064818;28;20025;-82
2021/03/25 04:57:11;;;;;;;34.85;18.90;;;6.50;99.90;;;;;;5061701;28;20064;-82
2021/03/25 04:59:38;;;;;;;38.58;20.70;;;6.50;99.90;;;;;;5047892;28;20041;-82
2021/03/25 05:02:06;;;;;;;39.80;20.63;;;6.50;99.90;;;;;;5081324;28;20033;-82
2021/03/25 05:04:36;;;;;;;37.88;21.88;;;6.50;99.90;;;;;;5048001;28;20379;-82
2021/03/25 05:07:03;;;;;;;38.70;20.70;;;6.50;99.90;;;;;;5047780;28;20025;-82
2021/03/25 05:09:29;;;;;;;39.05;20.85;;;6.50;99.90;;;;;;5065276;28;20080;-82
2021/03/25 05:11:56;;;;;;;37.70;21.48;;;6.50;99.90;;;;;;5064472;28;20025;-81
2021/03/25 05:14:25;;;;;;;39.38;21.98;;;6.50;99.90;;;;;;5047688;28;20127;-82
2021/03/25 05:16:58;;;;;;;43.13;21.67;;;6.60;99.90;;;;;;5055684;28;20093;-82
2021/03/25 05:19:45;;;;;;;41.38;21.85;;;6.50;99.90;;;;;;5037529;28;20440;-82
2021/03/25 05:22:13;;;;;;;45.47;21.50;;;6.50;99.90;;;;;;5065494;28;20029;-82
2021/03/25 05:24:57;;;;;;;43.90;22.75;;;6.50;99.90;;;;;;5064044;28;20033;-82
2021/03/25 05:27:47;;;;;;;41.85;22.38;;;6.50;99.90;;;;;;5064067;28;20063;-82
2021/03/25 05:30:18;;;;;;;42.50;23.88;;;6.60;99.90;;;;;;5063999;28;20116;-82
2021/03/25 05:32:47;;;;;;;43.38;23.42;;;6.50;99.90;;;;;;5063973;28;20032;-82
2021/03/25 05:35:19;;;;;;;41.08;22.52;;;6.50;99.90;;;;;;5063783;28;20097;-83
2021/03/25 05:37:46;;;;;;;41.72;22.65;;;6.50;99.90;;;;;;5047313;28;20044;-82
2021/03/25 05:40:21;;;;;;;44.00;22.58;;;6.50;99.90;;;;;;5063644;28;20128;-82
2021/03/25 05:43:23;;;;;;;42.05;22.35;;;6.50;99.90;;;;;;5080580;28;20033;-83
2021/03/25 05:45:48;;;;;;;37.67;22.33;;;6.50;99.90;;;;;;5064000;28;20044;-82
2021/03/25 05:48:19;;;;;;;44.20;22.88;;;6.50;99.90;;;;;;5064145;28;20037;-82
2021/03/25 05:51:23;;;;;;;39.75;22.83;;;6.60;99.90;;;;;;5041282;28;20040;-83
2021/03/25 05:54:31;;;;;;;44.78;24.02;;;6.70;99.90;;;;;;5003898;28;20048;-83
2021/03/25 05:57:24;;;;;;;40.17;22.23;;;6.60;99.90;;;;;;5042905;28;20037;-83
2021/03/25 06:00:18;;;;;;;46.53;24.20;;;6.60;99.90;;;;;;5043155;28;20050;-83
2021/03/25 06:02:50;;;;;;;38.50;22.85;;;6.60;99.90;;;;;;5026731;28;20080;-82
2021/03/25 06:05:36;;;;;;;42.88;23.42;;;6.60;99.90;;;;;;5026633;28;20033;-83
2021/03/25 06:08:35;;;;;;;43.55;23.55;;;6.60;99.90;;;;;;4963737;29;20216;-81
2021/03/25 06:11:23;;;;;;;42.38;21.35;;;6.60;99.90;;;;;;4947930;29;20182;-82
2021/03/25 06:14:09;;;;;;;44.90;22.95;;;6.50;99.90;;;;;;4963863;29;20050;-81
2021/03/25 06:17:27;;;;;;;41.30;22.02;;;6.50;99.90;;;;;;4939473;28;20042;-82
2021/03/25 06:19:58;;;;;;;42.08;21.88;;;6.40;99.90;;;;;;4947949;29;20079;-82
2021/03/25 06:22:39;;;;;;;;;;;6.40;99.90;;;;;;4932700;29;20055;-81
2021/03/25 06:25:33;;;;;;;41.35;21.48;;;6.40;99.90;;;;;;4948305;29;20049;-82
2021/03/25 06:28:01;;;;;;;43.40;23.92;;;6.40;99.90;;;;;;4932075;29;20047;-82
2021/03/25 06:30:32;;;;;;;42.20;22.38;;;6.30;99.90;;;;;;4948123;29;20035;-83
2021/03/25 06:33:17;;;;;;;47.80;25.83;;;6.30;99.90;;;;;;4932158;29;20111;-82
2021/03/25 06:35:46;;;;;;;47.30;24.52;;;6.30;99.90;;;;;;4931975;29;20032;-82
2021/03/25 06:38:25;;;;;;;44.78;23.95;;;6.30;99.90;;;;;;4947979;29;20047;-82
2021/03/25 06:41:13;;;;;;;47.05;27.00;;;6.30;99.90;;;;;;4931961;29;20055;-82
2021/03/25 06:44:01;;;;;;;50.13;26.60;;;6.40;99.90;;;;;;4947901;29;20080;-82
2021/03/25 06:46:39;;;;;;;52.47;25.73;;;6.40;99.90;;;;;;5002723;28;20062;-82
2021/03/25 06:49:20;;;;;;;52.15;29.17;;;6.40;99.90;;;;;;4989339;28;20458;-82
2021/03/25 06:51:46;;;;;;;46.03;26.33;;;6.50;99.90;;;;;;4989398;28;20129;-82
2021/03/25 06:54:16;;;;;;;52.30;27.25;;;6.60;99.90;;;;;;5036886;28;20203;-82
2021/03/25 06:56:46;;;;;;;52.35;27.90;;;6.70;99.90;;;;;;5062832;28;20036;-82
2021/03/25 06:59:37;;;;;;;47.50;27.65;;;6.80;99.90;;;;;;5062680;28;20037;-82
2021/03/25 07:02:09;;;;;;;54.35;28.95;;;6.90;99.90;;;;;;5063182;28;20037;-83
2021/03/25 07:04:40;;;;;;;53.15;29.63;;;7.10;99.90;;;;;;5046201;28;20042;-84
2021/03/25 07:07:12;;;;;;;52.53;29.08;;;7.20;99.90;;;;;;5045992;28;20037;-84
2021/03/25 07:09:38;;;;;;;54.38;30.30;;;7.40;99.90;;;;;;5045819;28;20076;-82
2021/03/25 07:12:19;;;;;;;56.85;29.92;;;7.50;99.90;;;;;;5047242;28;20025;-83
2021/03/25 07:14:44;;;;;;;;;;;7.60;99.90;;;;;;5063112;28;20025;-82
2021/03/25 07:17:14;;;;;;;63.60;31.65;;;7.80;99.90;;;;;;5055040;28;20381;-83
2021/03/25 07:19:44;;;;;;;52.55;28.42;;;7.80;99.90;;;;;;5045700;28;20117;-82
2021/03/25 07:23:11;;;;;;;55.05;29.30;;;7.80;99.90;;;;;;5029409;28;20084;-83
2021/03/25 07:25:40;;;;;;;51.70;26.60;;;7.90;99.90;;;;;;5025973;28;20037;-83
2021/03/25 07:28:16;;;;;;;52.53;28.23;;;8.00;99.90;;;;;;5043255;28;20037;-82
2021/03/25 07:30:48;;;;;;;52.30;28.20;;;7.90;99.90;;;;;;5044586;28;20033;-83
2021/03/25 07:33:21;;;;;;;50.72;27.45;;;7.80;99.90;;;;;;5044339;28;20041;-82
2021/03/25 07:35:50;;;;;;;57.88;30.65;;;7.80;99.90;;;;;;5044143;28;20288;-83
2021/03/25 07:38:29;;;;;;;58.57;30.87;;;7.80;99.90;;;;;;5027802;28;20041;-82
2021/03/25 07:41:06;;;;;;;57.17;31.27;;;7.90;99.90;;;;;;5044361;28;20053;-82
2021/03/25 07:44:02;;;;;;;58.97;31.27;;;7.90;99.90;;;;;;5027495;28;20033;-82
2021/03/25 07:46:30;;;;;;;53.90;30.63;;;8.00;99.90;;;;;;5044234;28;20033;-83
2021/03/25 07:49:15;;;;;;;62.28;33.17;;;8.10;99.90;;;;;;5027296;28;20029;-82
2021/03/25 07:51:52;;;;;;;63.72;34.30;;;8.20;99.90;;;;;;5044232;28;20033;-83
2021/03/25 07:54:28;;;;;;;69.25;38.05;;;8.20;99.90;;;;;;5011058;28;20026;-82
2021/03/25 07:57:03;;;;;;;65.53;35.03;;;8.30;99.90;;;;;;5011171;28;20441;-83
2021/03/25 07:59:28;;;;;;;72.85;38.90;;;8.40;99.90;;;;;;5020584;28;20117;-83
2021/03/25 08:01:54;;;;;;;69.95;37.35;;;8.50;99.90;;;;;;5045237;28;20030;-83
2021/03/25 08:04:29;;;;;;;76.55;39.25;;;8.60;99.90;;;;;;5028336;28;20040;-83
2021/03/25 08:07:05;;;;;;;78.30;40.30;;;8.70;99.90;;;;;;5045129;28;20036;-83
2021/03/25 08:09:47;;;;;;;68.40;39.10;;;8.70;99.90;;;;;;5044783;28;20061;-83
2021/03/25 08:12:34;;;;;;;69.03;39.67;;;8.70;99.90;;;;;;5046224;28;20464;-83
2021/03/25 08:15:26;;;;;;;81.53;42.97;;;8.80;99.90;;;;;;5044933;28;20119;-83
2021/03/25 08:18:10;;;;;;;70.60;39.78;;;8.90;99.90;;;;;;5079196;28;20442;-83
2021/03/25 08:21:10;;;;;;;64.03;33.85;;;9.10;99.90;;;;;;5064827;28;20064;-83
2021/03/25 08:24:06;;;;;;;72.70;41.60;;;9.10;99.90;;;;;;5066017;28;20025;-83
2021/03/25 08:26:37;;;;;;;68.00;37.58;;;9.30;99.90;;;;;;5048021;28;20052;-82
2021/03/25 08:29:20;;;;;;;75.75;42.13;;;9.30;99.90;;;;;;5081161;28;20056;-84
2021/03/25 08:31:56;;;;;;;71.80;38.65;;;9.40;99.90;;;;;;5047959;28;20029;-83
2021/03/25 08:34:27;;;;;;;62.78;34.35;;;9.70;99.90;;;;;;5064567;28;20139;-83
2021/03/25 08:37:20;;;;;;;70.15;40.80;;;9.90;99.90;;;;;;5064355;28;20469;-83
2021/03/25 08:40:13;;;;;;;60.13;36.38;;;9.80;99.90;;;;;;5063687;28;20037;-84
2021/03/25 08:42:44;;;;;;;56.75;32.03;;;10.10;99.90;;;;;;5064536;28;20032;-84
2021/03/25 08:45:37;;;;;;;63.53;38.10;;;10.30;99.90;;;;;;5064039;28;20120;-83
2021/03/25 08:48:20;;;;;;;53.10;30.02;;;10.20;99.90;;;;;;5064035;28;20050;-82
2021/03/25 08:50:55;;;;;;;56.03;32.80;;;10.50;99.90;;;;;;5067321;28;20057;-84
2021/03/25 08:53:47;;;;;;;59.28;33.17;;;10.60;99.90;;;;;;5047538;28;20088;-83
2021/03/25 08:56:48;;;;;;;61.10;34.03;;;10.70;99.90;;;;;;5060993;28;20041;-83
2021/03/25 08:59:14;;;;;;;64.10;34.47;;;10.60;99.90;;;;;;5047229;28;20037;-83
2021/03/25 09:01:49;;;;;;;68.00;39.00;;;10.40;99.90;;;;;;5064313;28;20036;-84
2021/03/25 09:04:17;;;;;;;67.90;37.17;;;10.70;99.90;;;;;;5064001;28;20092;-83
2021/03/25 09:06:46;;;;;;;62.08;34.50;;;10.90;99.90;;;;;;5063702;28;20263;-84
2021/03/25 09:09:52;;;;;;;63.67;37.30;;;11.10;99.90;;;;;;5046849;28;20045;-83
2021/03/25 09:12:23;;;;;;;64.95;35.58;;;11.20;99.90;;;;;;5042658;28;20134;-83
2021/03/25 09:14:50;;;;;;;62.97;37.95;;;11.30;99.90;;;;;;5060931;28;20063;-85
2021/03/25 09:17:23;;;;;;;63.10;38.27;;;11.40;99.90;;;;;;5064229;28;20029;-84
2021/03/25 09:19:52;;;;;;;58.72;36.75;;;11.40;99.90;;;;;;5063504;28;20045;-84
2021/03/25 09:22:36;;;;;;;61.80;35.47;;;11.70;99.90;;;;;;5063699;28;20029;-84
2021/03/25 09:25:24;;;;;;;63.08;36.13;;;11.60;99.90;;;;;;5063693;28;20021;-84
2021/03/25 09:27:57;;;;;;;59.17;34.92;;;11.90;99.90;;;;;;5063751;28;20539;-84
2021/03/25 09:30:30;;;;;;;64.97;36.22;;;11.80;99.90;;;;;;5063391;28;20031;-84
2021/03/25 09:33:34;;;;;;;57.88;34.72;;;11.80;99.90;;;;;;5063522;28;20123;-83
2021/03/25 09:35:59;;;;;;;46.72;28.80;;;12.00;99.90;;;;;;5080040;28;20037;-84
2021/03/25 09:38:30;;;;;;;56.17;35.95;;;12.30;99.90;;;;;;5047211;28;20035;-84
2021/03/25 09:40:56;;;;;;;;;;;12.00;99.90;;;;;;5064091;28;20045;-83
2021/03/25 09:43:36;;;;;;;51.28;31.17;;;12.20;99.90;;;;;;5064339;28;19909;-84
2021/03/25 09:46:27;;;;;;;55.30;32.88;;;12.40;99.90;;;;;;5046842;28;20040;-84
2021/03/25 09:48:57;;;;;;;49.08;30.00;;;12.80;99.90;;;;;;5063522;28;20033;-84
2021/03/25 09:51:26;;;;;;;53.65;33.15;;;13.00;99.90;;;;;;5052479;28;20033;-84
2021/03/25 09:53:59;;;;;;;57.45;34.00;;;12.90;99.90;;;;;;5047792;28;20033;-84
2021/03/25 09:56:27;;;;;;;56.38;35.70;;;12.60;99.90;;;;;;5030991;28;20040;-85
2021/03/25 09:58:52;;;;;;;53.30;35.35;;;12.40;99.90;;;;;;5030670;28;20033;-84
2021/03/25 10:01:52;;;;;;;54.63;34.83;;;12.50;99.90;;;;;;5030970;28;20045;-84
2021/03/25 10:04:34;;;;;;;48.27;31.97;;;12.90;99.90;;;;;;5030998;28;20052;-84
2021/03/25 10:07:04;;;;;;;51.55;30.63;;;13.00;99.90;;;;;;5047504;28;20037;-84
2021/03/25 10:09:49;;;;;;;47.35;29.17;;;12.90;99.90;;;;;;5047177;28;20057;-84
2021/03/25 10:12:53;;;;;;;44.85;26.55;;;12.90;99.90;;;;;;5047512;28;20037;-83
2021/03/25 10:15:31;;;;;;;47.08;26.67;;;13.20;99.90;;;;;;5047456;28;20022;-84
2021/03/25 10:18:17;;;;;;;42.90;26.52;;;13.20;99.90;;;;;;5065595;28;20044;-84
2021/03/25 10:21:00;;;;;;;44.15;27.33;;;13.00;99.90;;;;;;5063121;28;20084;-84
2021/03/25 10:23:26;;;;;;;41.50;25.85;;;13.30;99.90;;;;;;5067161;28;20033;-84
2021/03/25 10:26:04;;;;;;;41.83;26.13;;;13.50;99.90;;;;;;5066948;28;20036;-84
2021/03/25 10:29:11;;;;;;;43.63;24.95;;;13.60;99.90;;;;;;5067098;28;20112;-84
2021/03/25 10:31:56;;;;;;;41.22;24.70;;;13.60;99.90;;;;;;5059776;28;20041;-84
2021/03/25 10:34:33;;;;;;;37.50;26.55;;;13.50;99.90;;;;;;5083942;28;20029;-84
2021/03/25 10:37:24;;;;;;;35.13;22.10;;;13.40;99.90;;;;;;5066705;28;20135;-84
2021/03/25 10:39:57;;;;;;;41.28;25.88;;;13.30;99.90;;;;;;5066724;28;20075;-84
2021/03/25 10:42:32;;;;;;;38.20;22.88;;;13.40;99.90;;;;;;5066980;28;20028;-85
2021/03/25 10:45:20;;;;;;;41.13;24.77;;;13.30;99.90;;;;;;5066662;28;20029;-84
2021/03/25 10:48:06;;;;;;;36.72;24.00;;;13.30;99.90;;;;;;5066502;28;20100;-84
2021/03/25 10:50:50;;;;;;;34.22;21.83;;;13.40;99.90;;;;;;5062419;28;20039;-84
2021/03/25 10:53:21;;;;;;;31.23;20.95;;;13.60;99.90;;;;;;5029916;28;20092;-84
2021/03/25 10:55:48;;;;;;;;;;;13.30;99.90;;;;;;5047245;28;20112;-84
2021/03/25 10:58:30;;;;;;;29.25;19.10;;;13.50;99.90;;;;;;5029993;28;19909;-84
2021/03/25 11:01:21;;;;;;;24.88;16.00;;;13.70;99.90;;;;;;5046473;28;20041;-84
2021/03/25 11:03:49;;;;;;;24.13;14.25;;;14.00;99.90;;;;;;5022637;28;20061;-84
2021/03/25 11:06:20;;;;;;;31.52;18.83;;;14.00;99.90;;;;;;5062698;28;20061;-85
2021/03/25 11:08:46;;;;;;;33.95;20.77;;;13.70;99.90;;;;;;5045975;28;20033;-85
2021/03/25 11:11:11;;;;;;;33.17;20.52;;;13.90;99.90;;;;;;5045987;28;20033;-84
2021/03/25 11:13:39;;;;;;;25.67;17.50;;;13.90;99.90;;;;;;5046118;28;20124;-84
2021/03/25 11:16:18;;;;;;;25.25;17.10;;;14.00;99.90;;;;;;5032812;28;20031;-85
2021/03/25 11:18:47;;;;;;;25.90;17.35;;;13.90;99.90;;;;;;5065732;28;20029;-85
2021/03/25 11:21:38;;;;;;;18.23;14.40;;;14.00;99.90;;;;;;5066037;28;20038;-84
2021/03/25 11:24:20;;;;;;;24.63;16.77;;;14.20;99.90;;;;;;5082849;28;20040;-85
2021/03/25 11:26:46;;;;;;;24.77;16.38;;;14.20;99.90;;;;;;5048891;28;20040;-84
2021/03/25 11:29:16;;;;;;;26.40;16.48;;;14.20;99.90;;;;;;5065741;28;20029;-84
2021/03/25 11:31:42;;;;;;;24.02;14.20;;;14.10;99.90;;;;;;5065869;28;20063;-84
2021/03/25 11:34:09;;;;;;;21.73;14.82;;;13.80;99.90;;;;;;5065733;28;20086;-84
2021/03/25 11:36:43;;;;;;;25.00;14.65;;;13.80;99.90;;;;;;5065640;28;20048;-85
2021/03/25 11:39:22;;;;;;;19.30;12.73;;;14.20;99.90;;;;;;5065515;28;20070;-85
2021/03/25 11:41:51;;;;;;;18.77;12.40;;;14.00;99.90;;;;;;5065490;28;20036;-84
2021/03/25 11:44:45;;;;;;;14.00;9.73;;;13.90;99.90;;;;;;5082565;28;20306;-84
2021/03/25 11:47:39;;;;;;;12.98;8.35;;;13.50;99.90;;;;;;5065464;28;20465;-84
2021/03/25 11:50:16;;;;;;;14.20;8.98;;;13.90;99.90;;;;;;5064818;28;20039;-84
2021/03/25 11:52:51;;;;;;;15.20;8.95;;;14.10;99.90;;;;;;5028752;28;20124;-84
2021/03/25 11:55:31;;;;;;;15.70;8.63;;;14.40;99.90;;;;;;5029003;28;20265;-85
2021/03/25 11:58:21;;;;;;;13.13;9.15;;;14.70;99.90;;;;;;5045526;28;20029;-85
2021/03/25 12:01:04;;;;;;;14.40;10.57;;;14.30;99.90;;;;;;5044772;28;20068;-85
2021/03/25 12:03:34;;;;;;;12.32;8.65;;;14.20;99.90;;;;;;5062862;28;20040;-85
2021/03/25 12:06:00;;;;;;;12.70;9.73;;;14.20;99.90;;;;;;5073908;22;20050;-84
2021/03/25 12:08:30;;;;;;;13.68;8.05;;;13.90;99.90;;;;;;5044984;28;20073;-84
2021/03/25 12:11:03;;;;;;;15.20;9.32;;;13.60;99.90;;;;;;5045345;28;20053;-84
2021/03/25 12:13:29;;;;;;;18.42;10.95;;;13.30;99.90;;;;;;5028744;28;20470;-84
2021/03/25 12:15:55;;;;;;;17.77;11.85;;;12.80;99.90;;;;;;5060764;28;20053;-84
2021/03/25 12:18:34;;;;;;;18.23;11.38;;;12.90;99.90;;;;;;5044577;28;20493;-84
2021/03/25 12:21:06;;;;;;;15.48;11.18;;;12.90;99.90;;;;;;5028546;28;20041;-83
2021/03/25 12:23:35;;;;;;;13.90;9.63;;;12.70;99.90;;;;;;5044981;28;20561;-83
2021/03/25 12:26:03;;;;;;;18.03;11.80;;;12.90;99.90;;;;;;5045188;28;20041;-84
2021/03/25 12:28:29;;;;;;;13.45;10.52;;;12.70;99.90;;;;;;5044626;28;20292;-84
2021/03/25 12:30:55;;;;;;;17.13;11.70;;;12.90;99.90;;;;;;5044446;28;20064;-83
2021/03/25 12:33:40;;;;;;;17.77;12.23;;;12.70;99.90;;;;;;5044959;28;20033;-84
2021/03/25 12:36:08;;;;;;;14.90;10.93;;;12.70;99.90;;;;;;5044932;28;20060;-84
2021/03/25 12:38:34;;;;;;;16.50;11.55;;;13.00;99.90;;;;;;5044251;28;20033;-84
2021/03/25 12:41:00;;;;;;;16.77;11.73;;;12.70;99.90;;;;;;5044411;28;20041;-84
2021/03/25 12:43:32;;;;;;;16.13;12.93;;;12.50;99.90;;;;;;5044203;28;20239;-84
2021/03/25 12:46:01;;;;;;;13.40;9.63;;;12.50;99.90;;;;;;5043874;28;20026;-84
2021/03/25 12:48:32;;;;;;;17.48;11.90;;;12.60;99.90;;;;;;5025491;28;20043;-83
2021/03/25 12:51:01;;;;;;;20.00;13.18;;;12.40;99.90;;;;;;5043505;28;20036;-84
2021/03/25 12:53:31;;;;;;;23.73;15.57;;;12.20;99.90;;;;;;5043717;28;20521;-84
2021/03/25 12:55:58;;;;;;;26.52;14.77;;;11.80;99.90;;;;;;5044142;28;20033;-84
2021/03/25 12:58:32;;;;;;;20.73;13.90;;;11.90;99.90;;;;;;5060351;28;20077;-84
2021/03/25 13:01:03;;;;;;;24.63;15.93;;;11.80;99.90;;;;;;5044214;28;20045;-85
2021/03/25 13:03:28;;;;;;;25.05;16.52;;;11.60;99.90;;;;;;5044321;28;20029;-83
2021/03/25 13:05:54;;;;;;;23.10;16.58;;;11.70;99.90;;;;;;5043474;28;20030;-84
2021/03/25 13:08:20;;;;;;;23.40;16.42;;;11.70;99.90;;;;;;5043568;28;20069;-83
2021/03/25 13:10:46;;;;;;;24.48;16.00;;;11.80;99.90;;;;;;5044009;28;20033;-84
2021/03/25 13:13:11;;;;;;;26.23;17.70;;;11.90;99.90;;;;;;5043950;28;20034;-84
2021/03/25 13:15:38;;;;;;;25.70;16.55;;;11.70;99.90;;;;;;5043929;28;20064;-83
2021/03/25 13:18:04;;;;;;;23.88;16.10;;;11.60;99.90;;;;;;5043800;28;20140;-84
2021/03/25 13:20:30;;;;;;;26.92;18.30;;;11.40;99.90;;;;;;5043489;28;20095;-84
2021/03/25 13:22:56;;;;;;;25.88;17.70;;;11.40;99.90;;;;;;5043963;28;20025;-83